createdAt,value
2019-02-11T00:00:37.174Z,5.40
2019-02-11T00:01:13.480Z,5.40
2019-02-11T00:01:48.036Z,5.40
2019-02-11T00:02:22.528Z,5.40
2019-02-11T00:02:57.021Z,5.40
2019-02-11T00:03:31.514Z,5.40
2019-02-11T00:04:07.235Z,5.40
2019-02-11T00:04:41.793Z,5.40
2019-02-11T00:05:16.318Z,5.40
2019-02-11T00:05:50.813Z,5.40
2019-02-11T00:06:25.307Z,5.40
2019-02-11T00:06:59.808Z,5.40
2019-02-11T00:07:34.580Z,5.40
2019-02-11T00:08:09.090Z,5.40
2019-02-11T00:08:43.571Z,5.40
2019-02-11T00:09:18.050Z,5.40
2019-02-11T00:09:52.617Z,5.40
2019-02-11T00:10:27.140Z,5.40
2019-02-11T00:11:01.624Z,5.40
2019-02-11T00:11:36.143Z,5.40
2019-02-11T00:12:10.719Z,5.40
2019-02-11T00:12:45.331Z,5.40
2019-02-11T00:13:19.844Z,5.40
2019-02-11T00:13:54.391Z,5.40
2019-02-11T00:14:28.965Z,5.40
2019-02-11T00:15:03.636Z,5.40
2019-02-11T00:15:38.203Z,5.40
2019-02-11T00:16:12.699Z,5.40
2019-02-11T00:16:47.211Z,5.40
2019-02-11T00:17:21.760Z,5.40
2019-02-11T00:17:56.328Z,5.30
2019-02-11T00:18:30.856Z,5.40
2019-02-11T00:19:05.342Z,5.40
2019-02-11T00:19:39.831Z,5.40
2019-02-11T00:20:14.331Z,5.40
2019-02-11T00:20:48.924Z,5.40
2019-02-11T00:21:23.444Z,5.40
2019-02-11T00:21:57.982Z,5.40
2019-02-11T00:22:32.478Z,5.40
2019-02-11T00:23:06.972Z,5.30
2019-02-11T00:23:41.651Z,5.30
2019-02-11T00:24:16.146Z,5.30
2019-02-11T00:24:50.634Z,5.30
2019-02-11T00:25:25.565Z,5.30
2019-02-11T00:26:00.064Z,5.30
2019-02-11T00:26:35.357Z,5.30
2019-02-11T00:27:10.228Z,5.20
2019-02-11T00:27:44.723Z,5.20
2019-02-11T00:28:19.312Z,5.20
2019-02-11T00:28:54.524Z,5.20
2019-02-11T00:29:29.238Z,5.20
2019-02-11T00:30:04.523Z,5.20
2019-02-11T00:30:39.084Z,5.20
2019-02-11T00:31:13.588Z,5.20
2019-02-11T00:31:48.142Z,5.20
2019-02-11T00:32:22.639Z,5.10
2019-02-11T00:32:57.221Z,5.20
2019-02-11T00:33:31.797Z,5.20
2019-02-11T00:34:06.288Z,5.20
2019-02-11T00:34:40.780Z,5.20
2019-02-11T00:35:15.339Z,5.20
2019-02-11T00:35:50.064Z,5.20
2019-02-11T00:36:24.615Z,5.20
2019-02-11T00:36:59.124Z,5.20
2019-02-11T00:37:33.632Z,5.20
2019-02-11T00:38:08.108Z,5.20
2019-02-11T00:38:42.593Z,5.20
2019-02-11T00:39:17.085Z,5.20
2019-02-11T00:39:51.593Z,5.20
2019-02-11T00:40:26.142Z,5.10
2019-02-11T00:41:00.640Z,5.10
2019-02-11T00:41:36.390Z,5.10
2019-02-11T00:42:10.941Z,5.10
2019-02-11T00:42:45.428Z,5.10
2019-02-11T00:43:20.180Z,5.10
2019-02-11T00:43:54.678Z,5.10
2019-02-11T00:44:29.238Z,5.10
2019-02-11T00:45:04.374Z,5.10
2019-02-11T00:45:42.001Z,5.00
2019-02-11T00:46:16.499Z,5.00
2019-02-11T00:46:51.015Z,5.00
2019-02-11T00:47:25.508Z,5.10
2019-02-11T00:48:00.139Z,5.10
2019-02-11T00:48:34.626Z,5.10
2019-02-11T00:49:09.115Z,5.10
2019-02-11T00:49:43.608Z,5.00
2019-02-11T00:50:18.095Z,5.00
2019-02-11T00:50:52.581Z,5.00
2019-02-11T00:51:27.265Z,5.00
2019-02-11T00:52:01.777Z,5.10
2019-02-11T00:52:36.348Z,5.10
2019-02-11T00:53:10.838Z,5.10
2019-02-11T00:53:45.396Z,5.00
2019-02-11T00:54:19.889Z,5.00
2019-02-11T00:54:54.389Z,5.00
2019-02-11T00:55:28.940Z,5.00
2019-02-11T00:56:03.440Z,5.00
2019-02-11T00:56:38.009Z,5.00
2019-02-11T00:57:12.491Z,5.00
2019-02-11T00:57:46.981Z,5.00
2019-02-11T00:58:21.572Z,5.00
2019-02-11T00:58:56.119Z,5.00
2019-02-11T00:59:30.630Z,5.00
2019-02-11T01:00:08.592Z,5.00
2019-02-11T01:00:43.089Z,5.00
2019-02-11T01:01:17.621Z,5.00
2019-02-11T01:01:52.190Z,5.00
2019-02-11T01:02:26.683Z,5.00
2019-02-11T01:03:01.184Z,5.00
2019-02-11T01:03:35.685Z,5.00
2019-02-11T01:04:10.262Z,5.00
2019-02-11T01:04:44.821Z,5.00
2019-02-11T01:05:19.322Z,5.00
2019-02-11T01:05:53.819Z,5.00
2019-02-11T01:06:28.310Z,5.00
2019-02-11T01:07:02.870Z,5.00
2019-02-11T01:07:37.367Z,5.00
2019-02-11T01:08:11.924Z,5.00
2019-02-11T01:08:46.448Z,5.00
2019-02-11T01:09:21.022Z,5.00
2019-02-11T01:09:55.693Z,5.00
2019-02-11T01:10:30.349Z,5.00
2019-02-11T01:11:04.855Z,5.00
2019-02-11T01:11:39.367Z,5.00
2019-02-11T01:12:13.867Z,5.00
2019-02-11T01:12:48.535Z,5.00
2019-02-11T01:13:27.896Z,4.90
2019-02-11T01:13:59.230Z,5.00
2019-02-11T01:14:33.709Z,5.00
2019-02-11T01:15:10.445Z,5.00
2019-02-11T01:15:45.020Z,5.00
2019-02-11T01:16:19.589Z,5.00
2019-02-11T01:16:54.375Z,5.00
2019-02-11T01:17:28.938Z,5.00
2019-02-11T01:18:03.481Z,5.00
2019-02-11T01:18:37.970Z,5.00
2019-02-11T01:19:12.531Z,5.00
2019-02-11T01:19:47.045Z,5.00
2019-02-11T01:20:21.607Z,5.00
2019-02-11T01:20:56.362Z,5.00
2019-02-11T01:21:31.144Z,5.00
2019-02-11T01:22:05.684Z,5.00
2019-02-11T01:22:40.173Z,5.00
2019-02-11T01:23:14.727Z,5.00
2019-02-11T01:23:49.221Z,5.00
2019-02-11T01:24:23.985Z,5.00
2019-02-11T01:24:58.548Z,5.00
2019-02-11T01:25:33.026Z,5.00
2019-02-11T01:26:07.517Z,5.00
2019-02-11T01:26:42.001Z,5.00
2019-02-11T01:27:16.545Z,5.00
2019-02-11T01:27:51.031Z,5.00
2019-02-11T01:28:25.538Z,5.00
2019-02-11T01:29:00.107Z,5.00
2019-02-11T01:29:34.668Z,5.00
2019-02-11T01:30:11.406Z,4.90
2019-02-11T01:30:45.902Z,4.90
2019-02-11T01:31:20.807Z,5.00
2019-02-11T01:31:55.304Z,4.90
2019-02-11T01:32:30.151Z,4.90
2019-02-11T01:33:04.796Z,4.90
2019-02-11T01:33:39.314Z,4.90
2019-02-11T01:34:13.856Z,4.90
2019-02-11T01:34:48.351Z,4.90
2019-02-11T01:35:22.900Z,4.90
2019-02-11T01:35:57.463Z,4.90
2019-02-11T01:36:32.020Z,4.90
2019-02-11T01:37:06.579Z,4.90
2019-02-11T01:37:42.668Z,4.90
2019-02-11T01:38:17.514Z,4.90
2019-02-11T01:38:52.190Z,4.90
2019-02-11T01:39:26.686Z,4.90
2019-02-11T01:40:01.198Z,4.90
2019-02-11T01:40:35.781Z,4.90
2019-02-11T01:41:10.276Z,4.90
2019-02-11T01:41:44.841Z,4.90
2019-02-11T01:42:19.460Z,4.90
2019-02-11T01:42:54.203Z,5.00
2019-02-11T01:43:35.965Z,5.00
2019-02-11T01:44:04.886Z,5.00
2019-02-11T01:44:39.449Z,5.00
2019-02-11T01:45:13.957Z,5.00
2019-02-11T01:45:48.466Z,5.00
2019-02-11T01:46:23.008Z,5.00
2019-02-11T01:46:57.570Z,5.00
2019-02-11T01:47:32.195Z,5.00
2019-02-11T01:48:06.704Z,5.00
2019-02-11T01:48:41.251Z,5.00
2019-02-11T01:49:15.778Z,5.00
2019-02-11T01:49:50.351Z,5.00
2019-02-11T01:50:25.157Z,5.00
2019-02-11T01:50:59.669Z,5.00
2019-02-11T01:51:34.233Z,5.00
2019-02-11T01:52:08.781Z,5.00
2019-02-11T01:52:43.303Z,5.00
2019-02-11T01:53:17.868Z,5.00
2019-02-11T01:53:52.367Z,5.00
2019-02-11T01:54:26.860Z,5.00
2019-02-11T01:55:01.458Z,5.00
2019-02-11T01:55:36.385Z,5.00
2019-02-11T01:56:10.973Z,5.00
2019-02-11T01:56:45.467Z,5.00
2019-02-11T01:57:19.965Z,5.00
2019-02-11T01:57:54.529Z,4.90
2019-02-11T01:58:29.025Z,4.90
2019-02-11T01:59:03.508Z,4.90
2019-02-11T01:59:38.101Z,4.90
2019-02-11T02:00:13.723Z,4.90
2019-02-11T02:00:48.221Z,4.90
2019-02-11T02:01:22.747Z,4.90
2019-02-11T02:01:57.250Z,4.90
2019-02-11T02:02:31.742Z,4.90
2019-02-11T02:03:06.279Z,4.90
2019-02-11T02:03:40.767Z,4.90
2019-02-11T02:04:15.257Z,4.90
2019-02-11T02:04:49.761Z,4.90
2019-02-11T02:05:24.251Z,4.90
2019-02-11T02:05:58.746Z,4.90
2019-02-11T02:06:35.912Z,4.90
2019-02-11T02:07:10.489Z,4.90
2019-02-11T02:07:45.110Z,4.90
2019-02-11T02:08:21.959Z,4.90
2019-02-11T02:08:56.449Z,4.90
2019-02-11T02:09:31.001Z,4.90
2019-02-11T02:10:11.390Z,5.00
2019-02-11T02:10:45.901Z,4.90
2019-02-11T02:11:20.408Z,4.90
2019-02-11T02:11:54.965Z,5.00
2019-02-11T02:12:29.460Z,5.00
2019-02-11T02:13:04.030Z,5.00
2019-02-11T02:13:44.581Z,5.00
2019-02-11T02:14:14.768Z,5.00
2019-02-11T02:14:49.251Z,5.00
2019-02-11T02:15:23.769Z,5.00
2019-02-11T02:15:58.324Z,5.00
2019-02-11T02:16:32.959Z,5.00
2019-02-11T02:17:07.480Z,5.10
2019-02-11T02:17:41.981Z,5.10
2019-02-11T02:18:16.461Z,5.10
2019-02-11T02:18:51.064Z,5.10
2019-02-11T02:19:25.626Z,5.10
2019-02-11T02:20:00.250Z,5.00
2019-02-11T02:20:34.755Z,5.00
2019-02-11T02:21:09.248Z,5.00
2019-02-11T02:21:43.745Z,5.00
2019-02-11T02:22:18.317Z,5.00
2019-02-11T02:22:52.813Z,5.00
2019-02-11T02:23:27.323Z,5.00
2019-02-11T02:24:01.888Z,5.00
2019-02-11T02:24:36.453Z,5.00
2019-02-11T02:25:11.875Z,5.00
2019-02-11T02:25:47.210Z,5.00
2019-02-11T02:26:21.765Z,5.00
2019-02-11T02:26:56.256Z,5.00
2019-02-11T02:27:30.749Z,4.90
2019-02-11T02:28:05.293Z,4.90
2019-02-11T02:28:41.863Z,5.00
2019-02-11T02:29:16.465Z,5.00
2019-02-11T02:29:51.026Z,5.00
2019-02-11T02:30:25.535Z,5.00
2019-02-11T02:31:00.179Z,5.00
2019-02-11T02:31:34.918Z,4.90
2019-02-11T02:32:09.476Z,5.00
2019-02-11T02:32:44.211Z,5.00
2019-02-11T02:33:18.707Z,5.00
2019-02-11T02:33:53.260Z,4.90
2019-02-11T02:34:27.806Z,4.90
2019-02-11T02:35:02.322Z,4.90
2019-02-11T02:35:36.944Z,5.00
2019-02-11T02:36:11.481Z,4.90
2019-02-11T02:36:46.579Z,4.90
2019-02-11T02:37:21.137Z,4.90
2019-02-11T02:37:55.630Z,4.90
2019-02-11T02:38:30.128Z,4.90
2019-02-11T02:39:05.627Z,4.90
2019-02-11T02:39:40.113Z,4.90
2019-02-11T02:40:14.627Z,4.90
2019-02-11T02:40:49.172Z,4.90
2019-02-11T02:41:23.663Z,4.90
2019-02-11T02:41:58.917Z,4.80
2019-02-11T02:42:33.679Z,4.80
2019-02-11T02:43:08.172Z,4.90
2019-02-11T02:43:42.704Z,4.80
2019-02-11T02:44:17.206Z,4.80
2019-02-11T02:44:51.753Z,4.90
2019-02-11T02:45:26.250Z,4.90
2019-02-11T02:46:00.742Z,4.90
2019-02-11T02:46:35.249Z,4.90
2019-02-11T02:47:09.751Z,4.90
2019-02-11T02:47:44.295Z,4.90
2019-02-11T02:48:18.836Z,4.80
2019-02-11T02:48:53.369Z,4.90
2019-02-11T02:49:27.991Z,4.90
2019-02-11T02:50:02.485Z,4.80
2019-02-11T02:50:36.966Z,4.80
2019-02-11T02:51:11.467Z,4.80
2019-02-11T02:51:45.961Z,4.80
2019-02-11T02:52:20.521Z,4.80
2019-02-11T02:52:55.085Z,4.80
2019-02-11T02:53:29.622Z,4.90
2019-02-11T02:54:04.157Z,4.80
2019-02-11T02:54:38.709Z,4.80
2019-02-11T02:55:13.332Z,4.80
2019-02-11T02:55:47.872Z,4.80
2019-02-11T02:56:22.414Z,4.80
2019-02-11T02:56:56.895Z,4.80
2019-02-11T02:57:31.377Z,4.70
2019-02-11T02:58:05.957Z,4.70
2019-02-11T02:58:40.508Z,4.70
2019-02-11T02:59:15.018Z,4.70
2019-02-11T02:59:49.526Z,4.70
2019-02-11T03:00:24.086Z,4.70
2019-02-11T03:00:58.592Z,4.60
2019-02-11T03:01:33.149Z,4.60
2019-02-11T03:02:07.721Z,4.60
2019-02-11T03:02:42.217Z,4.50
2019-02-11T03:03:16.706Z,4.50
2019-02-11T03:03:51.195Z,4.50
2019-02-11T03:04:25.694Z,4.50
2019-02-11T03:05:00.521Z,4.50
2019-02-11T03:05:35.023Z,4.40
2019-02-11T03:06:09.583Z,4.40
2019-02-11T03:06:44.097Z,4.40
2019-02-11T03:07:18.581Z,4.40
2019-02-11T03:07:53.093Z,4.40
2019-02-11T03:08:29.346Z,4.40
2019-02-11T03:09:04.683Z,4.40
2019-02-11T03:09:39.631Z,4.30
2019-02-11T03:10:14.466Z,4.30
2019-02-11T03:10:48.993Z,4.30
2019-02-11T03:11:23.569Z,4.30
2019-02-11T03:11:58.132Z,4.30
2019-02-11T03:12:32.973Z,4.30
2019-02-11T03:13:07.493Z,4.30
2019-02-11T03:13:42.122Z,4.30
2019-02-11T03:14:16.677Z,4.40
2019-02-11T03:14:51.182Z,4.30
2019-02-11T03:15:25.665Z,4.30
2019-02-11T03:16:00.155Z,4.30
2019-02-11T03:16:34.667Z,4.30
2019-02-11T03:17:09.222Z,4.30
2019-02-11T03:17:43.724Z,4.30
2019-02-11T03:18:18.213Z,4.30
2019-02-11T03:18:52.815Z,4.30
2019-02-11T03:19:27.349Z,4.30
2019-02-11T03:20:01.844Z,4.30
2019-02-11T03:20:36.406Z,4.30
2019-02-11T03:21:10.922Z,4.20
2019-02-11T03:21:46.550Z,4.20
2019-02-11T03:22:21.081Z,4.10
2019-02-11T03:22:55.655Z,4.10
2019-02-11T03:23:30.143Z,4.10
2019-02-11T03:24:04.628Z,4.00
2019-02-11T03:24:39.155Z,4.00
2019-02-11T03:25:13.637Z,4.00
2019-02-11T03:25:48.184Z,4.00
2019-02-11T03:26:22.677Z,4.00
2019-02-11T03:26:57.214Z,4.00
2019-02-11T03:27:31.757Z,4.00
2019-02-11T03:28:06.271Z,4.00
2019-02-11T03:28:40.902Z,3.90
2019-02-11T03:29:15.402Z,3.90
2019-02-11T03:29:49.960Z,3.90
2019-02-11T03:30:24.522Z,3.90
2019-02-11T03:30:59.095Z,3.90
2019-02-11T03:31:33.597Z,3.90
2019-02-11T03:32:08.151Z,3.90
2019-02-11T03:32:42.673Z,3.90
2019-02-11T03:33:17.273Z,3.90
2019-02-11T03:33:51.849Z,3.90
2019-02-11T03:34:26.399Z,3.90
2019-02-11T03:35:00.933Z,3.80
2019-02-11T03:35:35.500Z,3.80
2019-02-11T03:36:10.129Z,3.80
2019-02-11T03:36:44.632Z,3.80
2019-02-11T03:37:19.197Z,3.80
2019-02-11T03:37:53.782Z,3.70
2019-02-11T03:38:28.260Z,3.70
2019-02-11T03:39:02.922Z,3.70
2019-02-11T03:39:37.493Z,3.70
2019-02-11T03:40:12.019Z,3.70
2019-02-11T03:40:46.602Z,3.70
2019-02-11T03:41:21.159Z,3.80
2019-02-11T03:41:55.889Z,3.80
2019-02-11T03:42:30.457Z,3.70
2019-02-11T03:43:05.242Z,3.80
2019-02-11T03:43:39.807Z,3.80
2019-02-11T03:44:15.325Z,3.80
2019-02-11T03:44:49.942Z,3.80
2019-02-11T03:45:24.490Z,3.80
2019-02-11T03:45:59.067Z,3.80
2019-02-11T03:46:33.565Z,3.80
2019-02-11T03:47:08.065Z,3.80
2019-02-11T03:47:42.574Z,3.80
2019-02-11T03:48:17.074Z,3.80
2019-02-11T03:48:51.625Z,3.90
2019-02-11T03:49:26.119Z,3.90
2019-02-11T03:50:00.705Z,3.90
2019-02-11T03:50:35.210Z,3.90
2019-02-11T03:51:09.707Z,3.90
2019-02-11T03:51:44.191Z,4.00
2019-02-11T03:52:18.682Z,3.90
2019-02-11T03:52:53.240Z,3.90
2019-02-11T03:53:27.777Z,3.90
2019-02-11T03:54:02.282Z,3.90
2019-02-11T03:54:38.280Z,4.00
2019-02-11T03:55:12.775Z,4.00
2019-02-11T03:55:47.403Z,4.00
2019-02-11T03:56:21.898Z,4.00
2019-02-11T03:56:56.390Z,4.00
2019-02-11T03:57:31.216Z,4.10
2019-02-11T03:58:06.087Z,4.10
2019-02-11T03:58:40.717Z,4.20
2019-02-11T03:59:15.293Z,4.20
2019-02-11T03:59:49.801Z,4.20
2019-02-11T04:00:24.294Z,4.10
2019-02-11T04:00:58.785Z,4.20
2019-02-11T04:01:33.277Z,4.10
2019-02-11T04:02:07.763Z,4.10
2019-02-11T04:02:42.268Z,4.10
2019-02-11T04:03:16.754Z,4.20
2019-02-11T04:03:51.257Z,4.20
2019-02-11T04:04:25.776Z,4.10
2019-02-11T04:05:00.307Z,4.10
2019-02-11T04:05:34.839Z,4.10
2019-02-11T04:06:09.333Z,4.00
2019-02-11T04:06:43.825Z,4.00
2019-02-11T04:07:18.314Z,4.00
2019-02-11T04:07:52.827Z,4.00
2019-02-11T04:08:29.187Z,4.00
2019-02-11T04:09:06.088Z,4.00
2019-02-11T04:09:40.667Z,3.90
2019-02-11T04:10:15.220Z,4.00
2019-02-11T04:10:49.711Z,4.00
2019-02-11T04:11:24.200Z,4.00
2019-02-11T04:11:58.771Z,4.00
2019-02-11T04:12:33.329Z,4.00
2019-02-11T04:13:07.839Z,4.00
2019-02-11T04:13:42.391Z,4.00
2019-02-11T04:14:24.760Z,4.00
2019-02-11T04:14:53.074Z,4.00
2019-02-11T04:15:27.580Z,4.00
2019-02-11T04:16:02.126Z,4.00
2019-02-11T04:16:36.625Z,4.00
2019-02-11T04:17:11.110Z,4.00
2019-02-11T04:17:45.653Z,4.00
2019-02-11T04:18:20.205Z,4.00
2019-02-11T04:18:54.707Z,4.00
2019-02-11T04:19:29.330Z,4.00
2019-02-11T04:20:04.542Z,4.00
2019-02-11T04:20:39.301Z,4.00
2019-02-11T04:21:13.869Z,4.00
2019-02-11T04:21:49.876Z,4.00
2019-02-11T04:22:24.374Z,4.00
2019-02-11T04:22:58.905Z,4.00
2019-02-11T04:23:33.391Z,4.00
2019-02-11T04:24:07.883Z,4.00
2019-02-11T04:24:42.379Z,4.00
2019-02-11T04:25:16.865Z,4.00
2019-02-11T04:25:51.344Z,3.90
2019-02-11T04:26:28.282Z,3.80
2019-02-11T04:27:03.347Z,3.90
2019-02-11T04:27:37.833Z,3.90
2019-02-11T04:28:12.327Z,3.90
2019-02-11T04:28:46.819Z,3.90
2019-02-11T04:29:21.322Z,3.90
2019-02-11T04:29:55.827Z,3.90
2019-02-11T04:30:30.325Z,3.90
2019-02-11T04:31:04.828Z,3.90
2019-02-11T04:31:39.335Z,3.90
2019-02-11T04:32:13.830Z,3.90
2019-02-11T04:32:48.313Z,3.90
2019-02-11T04:33:22.799Z,3.90
2019-02-11T04:33:58.315Z,3.90
2019-02-11T04:34:32.866Z,3.90
2019-02-11T04:35:07.362Z,3.90
2019-02-11T04:35:41.923Z,3.90
2019-02-11T04:36:16.413Z,4.00
2019-02-11T04:36:51.058Z,3.90
2019-02-11T04:37:25.546Z,3.90
2019-02-11T04:38:00.043Z,4.00
2019-02-11T04:38:34.624Z,3.90
2019-02-11T04:39:09.146Z,3.90
2019-02-11T04:39:46.298Z,3.90
2019-02-11T04:40:20.853Z,3.90
2019-02-11T04:40:55.342Z,3.90
2019-02-11T04:41:29.909Z,3.90
2019-02-11T04:42:04.435Z,3.90
2019-02-11T04:42:38.991Z,3.90
2019-02-11T04:43:13.485Z,4.00
2019-02-11T04:43:48.059Z,4.00
2019-02-11T04:44:22.616Z,4.00
2019-02-11T04:44:57.188Z,4.00
2019-02-11T04:45:31.700Z,4.00
2019-02-11T04:46:06.254Z,4.00
2019-02-11T04:46:40.808Z,4.00
2019-02-11T04:47:15.544Z,4.00
2019-02-11T04:47:50.037Z,4.00
2019-02-11T04:48:24.536Z,4.10
2019-02-11T04:48:59.038Z,4.00
2019-02-11T04:49:33.568Z,4.10
2019-02-11T04:50:09.815Z,4.10
2019-02-11T04:50:44.307Z,4.10
2019-02-11T04:51:18.793Z,4.10
2019-02-11T04:51:53.372Z,4.10
2019-02-11T04:52:27.969Z,4.10
2019-02-11T04:53:02.471Z,4.00
2019-02-11T04:53:37.033Z,4.00
2019-02-11T04:54:11.785Z,4.00
2019-02-11T04:54:46.295Z,4.00
2019-02-11T04:55:20.924Z,4.00
2019-02-11T04:55:55.515Z,4.00
2019-02-11T04:56:30.026Z,4.00
2019-02-11T04:57:04.593Z,4.00
2019-02-11T04:57:39.237Z,4.00
2019-02-11T04:58:13.789Z,4.00
2019-02-11T04:58:48.377Z,4.00
2019-02-11T04:59:22.937Z,4.00
2019-02-11T04:59:58.428Z,4.00
2019-02-11T05:00:33.241Z,4.00
2019-02-11T05:01:07.868Z,4.00
2019-02-11T05:01:42.386Z,4.00
2019-02-11T05:02:16.955Z,4.00
2019-02-11T05:02:51.537Z,4.00
2019-02-11T05:03:26.208Z,3.90
2019-02-11T05:04:00.723Z,3.90
2019-02-11T05:04:35.362Z,3.90
2019-02-11T05:05:10.571Z,3.90
2019-02-11T05:05:45.170Z,3.90
2019-02-11T05:06:19.785Z,3.90
2019-02-11T05:06:54.283Z,3.90
2019-02-11T05:07:28.958Z,3.90
2019-02-11T05:08:03.541Z,3.90
2019-02-11T05:08:38.034Z,3.90
2019-02-11T05:09:12.539Z,3.90
2019-02-11T05:09:47.036Z,3.90
2019-02-11T05:10:21.537Z,3.90
2019-02-11T05:10:56.235Z,3.90
2019-02-11T05:11:30.737Z,3.90
2019-02-11T05:12:05.237Z,3.90
2019-02-11T05:12:39.720Z,3.90
2019-02-11T05:13:14.213Z,3.90
2019-02-11T05:13:48.723Z,3.90
2019-02-11T05:14:23.314Z,3.90
2019-02-11T05:14:57.849Z,3.90
2019-02-11T05:15:32.358Z,3.90
2019-02-11T05:16:06.909Z,3.90
2019-02-11T05:16:41.400Z,4.00
2019-02-11T05:17:15.927Z,3.90
2019-02-11T05:17:50.485Z,3.90
2019-02-11T05:18:24.995Z,3.90
2019-02-11T05:18:59.558Z,3.90
2019-02-11T05:19:34.110Z,3.90
2019-02-11T05:20:10.872Z,3.90
2019-02-11T05:20:45.432Z,3.90
2019-02-11T05:21:20.009Z,3.90
2019-02-11T05:21:54.654Z,3.90
2019-02-11T05:22:29.203Z,3.90
2019-02-11T05:23:03.696Z,3.90
2019-02-11T05:23:38.257Z,3.90
2019-02-11T05:24:12.740Z,3.90
2019-02-11T05:24:47.241Z,3.90
2019-02-11T05:25:21.818Z,3.90
2019-02-11T05:25:56.311Z,4.00
2019-02-11T05:26:30.869Z,4.00
2019-02-11T05:27:05.371Z,3.90
2019-02-11T05:27:39.926Z,4.00
2019-02-11T05:28:14.507Z,4.00
2019-02-11T05:28:49.066Z,4.00
2019-02-11T05:29:23.617Z,4.00
2019-02-11T05:29:58.120Z,4.00
2019-02-11T05:30:32.795Z,4.00
2019-02-11T05:31:07.325Z,4.00
2019-02-11T05:31:41.812Z,3.90
2019-02-11T05:32:16.300Z,3.90
2019-02-11T05:32:50.841Z,4.00
2019-02-11T05:33:25.400Z,3.90
2019-02-11T05:33:59.916Z,4.00
2019-02-11T05:34:34.585Z,4.00
2019-02-11T05:35:09.463Z,4.00
2019-02-11T05:35:44.065Z,4.00
2019-02-11T05:36:18.548Z,4.00
2019-02-11T05:36:53.058Z,4.00
2019-02-11T05:37:28.209Z,4.00
2019-02-11T05:38:02.806Z,3.90
2019-02-11T05:38:37.606Z,3.90
2019-02-11T05:39:12.117Z,3.90
2019-02-11T05:39:46.641Z,3.90
2019-02-11T05:40:21.132Z,3.80
2019-02-11T05:40:55.647Z,3.80
2019-02-11T05:41:30.610Z,3.80
2019-02-11T05:42:05.175Z,3.80
2019-02-11T05:42:39.689Z,3.80
2019-02-11T05:43:14.198Z,3.80
2019-02-11T05:43:48.689Z,3.80
2019-02-11T05:44:23.181Z,3.70
2019-02-11T05:44:57.684Z,3.70
2019-02-11T05:45:32.189Z,3.70
2019-02-11T05:46:06.740Z,3.70
2019-02-11T05:46:41.237Z,3.60
2019-02-11T05:47:15.796Z,3.60
2019-02-11T05:47:50.292Z,3.60
2019-02-11T05:48:24.880Z,3.50
2019-02-11T05:48:59.982Z,3.50
2019-02-11T05:49:34.511Z,3.40
2019-02-11T05:50:12.518Z,3.40
2019-02-11T05:50:47.078Z,3.40
2019-02-11T05:51:21.644Z,3.30
2019-02-11T05:51:56.228Z,3.30
2019-02-11T05:52:30.781Z,3.30
2019-02-11T05:53:05.356Z,3.30
2019-02-11T05:53:39.922Z,3.30
2019-02-11T05:54:14.409Z,3.40
2019-02-11T05:54:48.910Z,3.40
2019-02-11T05:55:24.041Z,3.40
2019-02-11T05:55:58.804Z,3.40
2019-02-11T05:56:33.313Z,3.30
2019-02-11T05:57:07.871Z,3.30
2019-02-11T05:57:42.422Z,3.30
2019-02-11T05:58:16.929Z,3.50
2019-02-11T05:58:51.473Z,3.60
2019-02-11T05:59:26.005Z,3.70
2019-02-11T06:00:00.691Z,3.70
2019-02-11T06:00:35.247Z,3.80
2019-02-11T06:01:09.809Z,3.90
2019-02-11T06:01:44.321Z,4.00
2019-02-11T06:02:20.521Z,4.00
2019-02-11T06:02:55.032Z,4.10
2019-02-11T06:03:29.519Z,4.10
2019-02-11T06:04:04.081Z,4.10
2019-02-11T06:04:38.694Z,4.20
2019-02-11T06:05:13.257Z,4.20
2019-02-11T06:05:47.754Z,4.30
2019-02-11T06:06:23.206Z,4.30
2019-02-11T06:06:57.737Z,4.30
2019-02-11T06:07:32.236Z,4.30
2019-02-11T06:08:06.729Z,4.30
2019-02-11T06:08:43.848Z,4.30
2019-02-11T06:09:18.360Z,4.30
2019-02-11T06:09:52.861Z,4.20
2019-02-11T06:10:27.416Z,4.20
2019-02-11T06:11:01.913Z,4.20
2019-02-11T06:11:36.472Z,4.20
2019-02-11T06:12:11.031Z,4.20
2019-02-11T06:12:45.574Z,4.20
2019-02-11T06:13:20.098Z,4.20
2019-02-11T06:13:54.628Z,4.20
2019-02-11T06:14:29.133Z,4.20
2019-02-11T06:15:04.948Z,4.30
2019-02-11T06:15:39.514Z,4.30
2019-02-11T06:16:14.025Z,4.20
2019-02-11T06:16:48.559Z,4.10
2019-02-11T06:17:23.158Z,4.00
2019-02-11T06:17:58.172Z,3.90
2019-02-11T06:18:32.666Z,3.80
2019-02-11T06:19:07.323Z,3.70
2019-02-11T06:19:42.114Z,3.60
2019-02-11T06:20:16.814Z,3.40
2019-02-11T06:20:51.516Z,3.30
2019-02-11T06:21:28.636Z,3.20
2019-02-11T06:22:03.856Z,3.10
2019-02-11T06:22:38.660Z,3.10
2019-02-11T06:23:13.492Z,3.10
2019-02-11T06:23:48.240Z,3.00
2019-02-11T06:24:22.887Z,3.00
2019-02-11T06:24:57.470Z,3.00
2019-02-11T06:25:32.213Z,3.00
2019-02-11T06:26:07.065Z,2.90
2019-02-11T06:26:41.610Z,2.90
2019-02-11T06:27:17.457Z,2.90
2019-02-11T06:27:52.226Z,2.90
2019-02-11T06:28:26.862Z,2.80
2019-02-11T06:29:01.375Z,2.80
2019-02-11T06:29:36.038Z,2.80
2019-02-11T06:30:12.825Z,2.80
2019-02-11T06:30:51.954Z,2.80
2019-02-11T06:31:27.160Z,2.80
2019-02-11T06:32:02.079Z,2.80
2019-02-11T06:32:36.993Z,2.80
2019-02-11T06:33:11.658Z,2.80
2019-02-11T06:33:46.559Z,2.80
2019-02-11T06:34:21.177Z,2.80
2019-02-11T06:34:55.737Z,2.80
2019-02-11T06:35:30.229Z,2.80
2019-02-11T06:36:11.764Z,2.80
2019-02-11T06:36:40.990Z,2.80
2019-02-11T06:37:15.511Z,2.80
2019-02-11T06:37:50.042Z,2.70
2019-02-11T06:38:24.834Z,2.70
2019-02-11T06:38:59.404Z,2.70
2019-02-11T06:39:33.901Z,2.80
2019-02-11T06:40:10.236Z,2.80
2019-02-11T06:40:44.886Z,2.80
2019-02-11T06:41:19.451Z,2.80
2019-02-11T06:41:53.942Z,2.70
2019-02-11T06:42:28.423Z,2.80
2019-02-11T06:43:03.034Z,2.80
2019-02-11T06:43:37.584Z,2.80
2019-02-11T06:44:12.090Z,2.70
2019-02-11T06:44:46.680Z,2.70
2019-02-11T06:45:21.239Z,2.70
2019-02-11T06:45:55.758Z,2.70
2019-02-11T06:46:30.249Z,2.70
2019-02-11T06:47:04.891Z,2.70
2019-02-11T06:47:39.448Z,2.70
2019-02-11T06:48:14.017Z,2.70
2019-02-11T06:48:48.515Z,2.70
2019-02-11T06:49:23.075Z,2.70
2019-02-11T06:49:57.563Z,2.60
2019-02-11T06:50:32.101Z,2.70
2019-02-11T06:51:06.693Z,2.70
2019-02-11T06:51:41.244Z,2.60
2019-02-11T06:52:15.741Z,2.60
2019-02-11T06:52:50.234Z,2.60
2019-02-11T06:53:24.725Z,2.60
2019-02-11T06:53:59.218Z,2.60
2019-02-11T06:54:33.790Z,2.60
2019-02-11T06:55:11.341Z,2.60
2019-02-11T06:55:45.928Z,2.60
2019-02-11T06:56:20.424Z,2.60
2019-02-11T06:56:54.997Z,2.60
2019-02-11T06:57:29.544Z,2.60
2019-02-11T06:58:04.049Z,2.60
2019-02-11T06:58:38.608Z,2.60
2019-02-11T06:59:13.375Z,2.60
2019-02-11T06:59:47.878Z,2.70
2019-02-11T07:00:22.435Z,2.60
2019-02-11T07:00:56.940Z,2.70
2019-02-11T07:01:31.502Z,2.70
2019-02-11T07:02:05.987Z,2.70
2019-02-11T07:02:40.548Z,2.60
2019-02-11T07:03:15.248Z,2.60
2019-02-11T07:03:49.728Z,2.70
2019-02-11T07:04:24.236Z,2.60
2019-02-11T07:04:58.721Z,2.60
2019-02-11T07:05:33.216Z,2.60
2019-02-11T07:06:07.826Z,2.70
2019-02-11T07:06:42.353Z,2.60
2019-02-11T07:07:16.961Z,2.60
2019-02-11T07:07:51.588Z,2.60
2019-02-11T07:08:26.072Z,2.60
2019-02-11T07:09:00.566Z,2.60
2019-02-11T07:09:35.145Z,2.60
2019-02-11T07:10:12.526Z,2.60
2019-02-11T07:10:55.234Z,2.50
2019-02-11T07:11:23.237Z,2.60
2019-02-11T07:11:57.732Z,2.60
2019-02-11T07:12:32.321Z,2.60
2019-02-11T07:13:06.808Z,2.60
2019-02-11T07:13:41.304Z,2.60
2019-02-11T07:14:15.796Z,2.60
2019-02-11T07:14:50.288Z,2.50
2019-02-11T07:15:24.773Z,2.50
2019-02-11T07:15:59.274Z,2.50
2019-02-11T07:16:33.769Z,2.40
2019-02-11T07:17:08.252Z,2.40
2019-02-11T07:17:42.735Z,2.40
2019-02-11T07:18:17.233Z,2.40
2019-02-11T07:18:51.819Z,2.50
2019-02-11T07:19:26.307Z,2.50
2019-02-11T07:20:00.802Z,2.50
2019-02-11T07:20:35.287Z,2.40
2019-02-11T07:21:09.828Z,2.40
2019-02-11T07:21:44.615Z,2.40
2019-02-11T07:22:19.169Z,2.40
2019-02-11T07:22:53.673Z,2.40
2019-02-11T07:23:28.338Z,2.40
2019-02-11T07:24:02.824Z,2.40
2019-02-11T07:24:37.308Z,2.40
2019-02-11T07:25:12.504Z,2.40
2019-02-11T07:25:47.062Z,2.40
2019-02-11T07:26:21.907Z,2.40
2019-02-11T07:26:56.482Z,2.50
2019-02-11T07:27:30.976Z,2.50
2019-02-11T07:28:05.464Z,2.50
2019-02-11T07:28:39.943Z,2.50
2019-02-11T07:29:14.441Z,2.40
2019-02-11T07:29:48.946Z,2.40
2019-02-11T07:30:23.492Z,2.40
2019-02-11T07:30:58.268Z,2.40
2019-02-11T07:31:33.033Z,2.40
2019-02-11T07:32:07.525Z,2.40
2019-02-11T07:32:42.079Z,2.40
2019-02-11T07:33:16.589Z,2.40
2019-02-11T07:33:51.068Z,2.40
2019-02-11T07:34:25.597Z,2.30
2019-02-11T07:35:00.236Z,2.30
2019-02-11T07:35:34.929Z,2.40
2019-02-11T07:36:09.489Z,2.40
2019-02-11T07:36:44.052Z,2.40
2019-02-11T07:37:18.641Z,2.30
2019-02-11T07:37:53.201Z,2.30
2019-02-11T07:38:27.697Z,2.30
2019-02-11T07:39:02.237Z,2.30
2019-02-11T07:39:36.777Z,2.30
2019-02-11T07:40:12.111Z,2.30
2019-02-11T07:40:46.608Z,2.30
2019-02-11T07:41:22.750Z,2.30
2019-02-11T07:42:10.685Z,2.40